This is the latest recevied weather packets stored in our database for station/object SQ6ELQ-11. If no packets are shown the sender has not sent any weather packets the latest 10 day(s).
| Time | Temp. | Humidity | Pressure | Rain* | Wind** | Luminosity | Snow |
|---|---|---|---|---|---|---|---|
| 1777526853 | -2.22° C | 56% | 1030.4 hPa | 0 mm | - | - | - |
| 1777525755 | -3.33° C | 57% | 1030.4 hPa | 0 mm | - | - | - |
| 1777524669 | -4.44° C | 57% | 1030.3 hPa | 0 mm | - | - | - |
| 1777523535 | -5° C | 57% | 1030.1 hPa | 0 mm | - | - | - |
| 1777522406 | -5.56° C | 59% | 1030.2 hPa | 0 mm | - | - | - |
| 1777521337 | -6.11° C | 60% | 1030.1 hPa | 0 mm | - | - | - |
| 1777520259 | -6.11° C | 60% | 1030.1 hPa | 0 mm | - | - | - |
| 1777519182 | -6.11° C | 60% | 1029.9 hPa | 0 mm | - | - | - |
| 1777518122 | -5.56° C | 59% | 1030 hPa | 0 mm | - | - | - |
| 1777516991 | -5.56° C | 60% | 1029.9 hPa | 0 mm | - | - | - |
| 1777515901 | -5.56° C | 59% | 1029.9 hPa | 0 mm | - | - | - |
| 1777514832 | -5.56° C | 59% | 1029.9 hPa | 0 mm | - | - | - |
| 1777513701 | -5° C | 58% | 1029.7 hPa | 0 mm | - | - | - |
| 1777512559 | -5° C | 57% | 1029.7 hPa | 0 mm | - | - | - |
| 1777511472 | -5° C | 57% | 1029.6 hPa | 0 mm | - | - | - |
| 1777510415 | -5° C | 57% | 1029.5 hPa | 0 mm | - | - | - |
| 1777509415 | -4.44° C | 56% | 1029.4 hPa | 0 mm | - | - | - |
| 1777508292 | -4.44° C | 56% | 1029.6 hPa | 0 mm | - | - | - |
| 1777507113 | -3.89° C | 55% | 1029.5 hPa | 0 mm | - | - | - |
| 1777506074 | -3.89° C | 53% | 1029.7 hPa | 0 mm | - | - | - |
| 1777504977 | -3.33° C | 54% | 1029.8 hPa | 0 mm | - | - | - |
| 1777503872 | -3.33° C | 53% | 1029.7 hPa | 0 mm | - | - | - |
| 1777502782 | -3.33° C | 52% | 1029.7 hPa | 0 mm | - | - | - |
| 1777501608 | -2.78° C | 49% | 1029.6 hPa | 0 mm | - | - | - |
| 1777500632 | -2.78° C | 49% | 1029.5 hPa | 0 mm | - | - | - |
* Rain latest hour (hover to see other rain measurements)
** Current wind speed in m/s (hover to see current wind gust speed)